Time;durP1;ratioP1;P1;durP2;ratioP2;P2;SDS_P1;SDS_P2;PMS_P1;PMS_P2;Temp;Humidity;BMP_temperature;BMP_pressure;BME280_temperature;BME280_humidity;BME280_pressure;Samples;Min_cycle;Max_cycle;Signal;HPM_P1;HPM_P2
2021/12/15 00:00:20;;;;;;;146.90;44.65;;;11.30;99.90;;;;;;5156140;27;20413;-77
2021/12/15 00:02:50;;;;;;;134.02;42.30;;;11.20;99.90;;;;;;5138771;27;20039;-77
2021/12/15 00:05:21;;;;;;;147.82;43.78;;;11.10;99.90;;;;;;5155795;27;20545;-78
2021/12/15 00:07:49;;;;;;;132.57;42.58;;;11.20;99.90;;;;;;5155946;27;20049;-78
2021/12/15 00:10:14;;;;;;;121.45;41.13;;;11.20;99.90;;;;;;5156003;27;20529;-77
2021/12/15 00:12:40;;;;;;;129.75;42.60;;;11.20;99.90;;;;;;5138423;27;20126;-77
2021/12/15 00:15:06;;;;;;;150.38;42.47;;;11.10;99.90;;;;;;5155535;27;20144;-77
2021/12/15 00:17:32;;;;;;;130.15;40.95;;;11.10;99.90;;;;;;5138232;27;20050;-77
2021/12/15 00:19:58;;;;;;;129.77;41.65;;;11.10;99.90;;;;;;5138866;27;20054;-77
2021/12/15 00:22:24;;;;;;;146.18;42.67;;;11.20;99.90;;;;;;5138068;27;20394;-77
2021/12/15 00:24:49;;;;;;;135.73;41.67;;;11.10;99.90;;;;;;5120957;27;20137;-77
2021/12/15 00:27:15;;;;;;;118.80;38.97;;;11.20;99.90;;;;;;5155382;27;20088;-77
2021/12/15 00:29:41;;;;;;;128.93;41.17;;;11.10;99.90;;;;;;5138488;27;20046;-78
2021/12/15 00:32:07;;;;;;;131.80;39.50;;;11.10;99.90;;;;;;5155462;27;20042;-77
2021/12/15 00:34:35;;;;;;;131.02;41.40;;;11.20;99.90;;;;;;5138106;27;20121;-77
2021/12/15 00:37:01;;;;;;;124.93;40.75;;;11.20;99.90;;;;;;5155482;27;20447;-78
2021/12/15 00:39:29;;;;;;;119.75;39.90;;;11.10;99.90;;;;;;5155306;27;20082;-77
2021/12/15 00:41:55;;;;;;;117.43;37.90;;;11.10;99.90;;;;;;5155293;27;20050;-77
2021/12/15 00:44:20;;;;;;;121.70;38.75;;;11.10;99.90;;;;;;5154271;27;20046;-78
2021/12/15 00:46:50;;;;;;;120.70;37.13;;;11.20;99.90;;;;;;5155342;27;20076;-78
2021/12/15 00:49:16;;;;;;;126.88;38.92;;;11.20;99.90;;;;;;5155107;27;20099;-77
2021/12/15 00:51:42;;;;;;;123.47;39.47;;;11.30;99.90;;;;;;5138003;27;20038;-77
2021/12/15 00:54:09;;;;;;;105.60;37.00;;;11.30;99.90;;;;;;5154877;27;20050;-77
2021/12/15 00:56:35;;;;;;;126.40;39.70;;;11.30;99.90;;;;;;5137638;27;20505;-77
2021/12/15 00:59:06;;;;;;;133.75;40.00;;;11.30;99.90;;;;;;5155057;27;20051;-77
2021/12/15 01:01:32;;;;;;;108.65;38.95;;;11.40;99.90;;;;;;5137773;27;20047;-78
2021/12/15 01:03:58;;;;;;;115.70;38.47;;;11.30;99.90;;;;;;5154667;27;20400;-77
2021/12/15 01:06:25;;;;;;;120.13;41.08;;;11.30;99.90;;;;;;5154653;27;20129;-77
2021/12/15 01:08:57;;;;;;;112.55;38.00;;;11.30;99.90;;;;;;5154997;27;20038;-77
2021/12/15 01:11:45;;;;;;;118.55;37.55;;;11.20;99.90;;;;;;5154638;27;20047;-77
2021/12/15 01:14:34;;;;;;;118.72;39.40;;;11.20;99.90;;;;;;5137174;27;20042;-77
2021/12/15 01:19:54;;;;;;;129.95;40.45;;;11.20;99.90;;;;;;5154551;27;20053;-77
2021/12/15 01:22:33;;;;;;;118.50;39.55;;;11.20;99.90;;;;;;5154653;27;20053;-77
2021/12/15 01:25:06;;;;;;;112.13;38.15;;;11.30;99.90;;;;;;5137175;27;20485;-77
2021/12/15 01:27:31;;;;;;;123.50;39.92;;;11.30;99.90;;;;;;5154434;27;20119;-77
2021/12/15 01:29:57;;;;;;;113.03;37.28;;;11.40;99.90;;;;;;5153775;27;20129;-77
2021/12/15 01:32:23;;;;;;;125.22;39.55;;;11.40;99.90;;;;;;5137161;27;20046;-78
2021/12/15 01:34:50;;;;;;;100.78;39.47;;;11.40;99.90;;;;;;5154121;27;20576;-77
2021/12/15 01:37:17;;;;;;;100.97;36.78;;;11.30;99.90;;;;;;5154390;27;20070;-77
2021/12/15 01:39:43;;;;;;;117.82;39.50;;;11.30;99.90;;;;;;5154180;27;20082;-77
2021/12/15 01:42:10;;;;;;;114.88;38.03;;;11.30;99.90;;;;;;5136904;27;20252;-77
2021/12/15 01:47:20;;;;;;;109.07;38.75;;;11.30;99.90;;;;;;5154173;27;20398;-77
2021/12/15 01:49:50;;;;;;;117.13;39.83;;;11.40;99.90;;;;;;5136811;27;20485;-78
2021/12/15 01:52:21;;;;;;;115.10;39.08;;;11.40;99.90;;;;;;5153843;27;20138;-78
2021/12/15 01:54:56;;;;;;;118.10;40.25;;;11.40;99.90;;;;;;5153920;27;20047;-77
2021/12/15 01:57:25;;;;;;;111.13;38.55;;;11.50;99.90;;;;;;5137108;27;20043;-77
2021/12/15 01:59:52;;;;;;;101.18;38.50;;;11.30;99.90;;;;;;5153671;27;20046;-77
2021/12/15 02:02:19;;;;;;;128.57;40.72;;;11.40;99.90;;;;;;5154124;27;20046;-77
2021/12/15 02:04:45;;;;;;;109.55;38.20;;;11.40;99.90;;;;;;5153832;27;20126;-77
2021/12/15 02:07:15;;;;;;;116.68;39.80;;;11.50;99.90;;;;;;5153957;27;20047;-77
2021/12/15 02:12:16;;;;;;;111.30;37.38;;;11.50;99.90;;;;;;5154032;27;20082;-77
2021/12/15 02:14:42;;;;;;;111.82;38.47;;;11.40;99.90;;;;;;5135839;27;20107;-77
2021/12/15 02:17:07;;;;;;;123.07;40.58;;;11.40;99.90;;;;;;5136130;27;20047;-77
2021/12/15 02:19:33;;;;;;;111.70;38.42;;;11.50;99.90;;;;;;5153780;27;20053;-78
2021/12/15 02:21:59;;;;;;;116.03;39.08;;;11.50;99.90;;;;;;5153787;27;20054;-77
2021/12/15 02:24:26;;;;;;;116.72;38.28;;;11.50;99.90;;;;;;5136553;27;20082;-77
2021/12/15 02:26:58;;;;;;;120.35;39.03;;;11.40;99.90;;;;;;5154050;27;20082;-77
2021/12/15 02:29:24;;;;;;;115.93;39.50;;;11.40;99.90;;;;;;5153955;27;20059;-77
2021/12/15 02:32:04;;;;;;;111.53;37.97;;;11.40;99.90;;;;;;5153729;27;20137;-77
2021/12/15 02:37:18;;;;;;;119.97;39.55;;;11.50;99.90;;;;;;5153886;27;20042;-77
2021/12/15 02:39:47;;;;;;;128.48;40.08;;;11.50;99.90;;;;;;5153957;27;20099;-77
2021/12/15 02:42:13;;;;;;;127.25;40.05;;;11.50;99.90;;;;;;5156423;27;20442;-78
2021/12/15 02:44:43;;;;;;;125.10;39.95;;;11.50;99.90;;;;;;5156969;27;20449;-77
2021/12/15 02:47:16;;;;;;;112.88;40.22;;;11.50;99.90;;;;;;5157565;27;20219;-77
2021/12/15 02:49:43;;;;;;;133.95;41.13;;;11.40;99.90;;;;;;5158019;27;20085;-77
2021/12/15 02:52:09;;;;;;;120.15;38.95;;;11.50;99.90;;;;;;5157431;27;20096;-77
2021/12/15 02:54:36;;;;;;;115.55;40.80;;;11.50;99.90;;;;;;5140287;27;20390;-77
2021/12/15 02:57:10;;;;;;;115.82;39.47;;;11.50;99.90;;;;;;5157034;27;20500;-77
2021/12/15 02:59:51;;;;;;;117.90;39.60;;;11.50;99.90;;;;;;5157475;27;20046;-77
2021/12/15 03:05:24;;;;;;;130.77;42.00;;;11.60;99.90;;;;;;5157183;27;20093;-77
2021/12/15 03:08:07;;;;;;;125.20;42.05;;;11.50;99.90;;;;;;5142785;27;20053;-77
2021/12/15 03:16:05;;;;;;;117.97;41.00;;;11.40;99.90;;;;;;5156723;27;20057;-77
2021/12/15 03:18:31;;;;;;;110.22;41.95;;;11.40;99.90;;;;;;5139631;27;20046;-77
2021/12/15 03:21:05;;;;;;;122.25;42.42;;;11.50;99.90;;;;;;5156929;27;20046;-77
2021/12/15 03:23:50;;;;;;;112.10;40.38;;;11.50;99.90;;;;;;5139559;27;20046;-77
2021/12/15 03:26:26;;;;;;;116.00;41.40;;;11.50;99.90;;;;;;5156855;27;20429;-77
2021/12/15 03:37:23;;;;;;;106.40;41.10;;;11.60;99.90;;;;;;5157149;27;20598;-77
2021/12/15 03:40:02;;;;;;;131.82;40.90;;;11.60;99.90;;;;;;5156607;27;20039;-77
2021/12/15 03:42:37;;;;;;;118.45;40.00;;;11.60;99.90;;;;;;5156510;27;20074;-77
2021/12/15 03:45:06;;;;;;;119.18;41.20;;;11.60;99.90;;;;;;5138285;27;20084;-77
2021/12/15 03:47:35;;;;;;;120.95;42.35;;;11.60;99.90;;;;;;5139369;27;20049;-77
2021/12/15 03:50:03;;;;;;;108.15;40.35;;;11.60;99.90;;;;;;5156578;27;20046;-77
2021/12/15 03:52:29;;;;;;;127.40;43.15;;;11.50;99.90;;;;;;5155844;27;20134;-77
2021/12/15 03:54:55;;;;;;;93.22;38.17;;;11.60;99.90;;;;;;5156756;27;20133;-77
2021/12/15 03:57:21;;;;;;;136.95;42.03;;;11.60;99.90;;;;;;5138750;27;20057;-77
2021/12/15 03:59:47;;;;;;;129.73;43.10;;;11.60;99.90;;;;;;5156134;27;20054;-77
2021/12/15 04:02:16;;;;;;;122.90;41.80;;;11.60;99.90;;;;;;5138758;27;20047;-77
2021/12/15 04:04:43;;;;;;;110.43;42.17;;;11.60;99.90;;;;;;5156067;27;20058;-78
2021/12/15 04:07:09;;;;;;;128.75;43.67;;;11.60;99.90;;;;;;5138871;27;20038;-77
2021/12/15 04:09:35;;;;;;;116.10;41.67;;;11.60;99.90;;;;;;5156100;27;20042;-77
2021/12/15 04:12:01;;;;;;;106.72;38.42;;;11.60;99.90;;;;;;5138854;27;20545;-77
2021/12/15 04:14:34;;;;;;;126.10;43.05;;;11.40;99.90;;;;;;5138007;27;20477;-77
2021/12/15 04:17:17;;;;;;;119.57;42.08;;;11.50;99.90;;;;;;5155781;27;20043;-77
2021/12/15 04:19:43;;;;;;;117.72;41.50;;;11.50;99.90;;;;;;5138240;27;20493;-77
2021/12/15 04:22:08;;;;;;;122.30;42.42;;;11.50;99.90;;;;;;5155732;27;20050;-77
2021/12/15 04:24:35;;;;;;;110.18;40.67;;;11.40;99.90;;;;;;5121322;27;20049;-77
2021/12/15 04:27:01;;;;;;;115.05;40.28;;;11.40;99.90;;;;;;5155576;27;20057;-77
2021/12/15 04:29:29;;;;;;;116.15;40.10;;;11.30;99.90;;;;;;5138630;27;20057;-77
2021/12/15 04:32:07;;;;;;;94.70;38.47;;;11.30;99.90;;;;;;5155517;27;20115;-77
2021/12/15 04:34:32;;;;;;;107.88;38.38;;;11.30;99.90;;;;;;5155669;27;20053;-77
2021/12/15 04:36:58;;;;;;;116.80;39.70;;;11.40;99.90;;;;;;5155206;27;20486;-77
2021/12/15 04:39:27;;;;;;;111.35;40.22;;;11.40;99.90;;;;;;5154949;27;20042;-78
2021/12/15 04:41:56;;;;;;;104.80;37.55;;;11.40;99.90;;;;;;5138148;27;20485;-77
2021/12/15 04:44:26;;;;;;;104.07;38.45;;;11.40;99.90;;;;;;5154162;27;20055;-77
2021/12/15 04:47:00;;;;;;;96.32;37.35;;;11.30;99.90;;;;;;5155686;27;20051;-77
2021/12/15 04:49:30;;;;;;;98.28;37.03;;;11.40;99.90;;;;;;5155124;27;20050;-77
2021/12/15 04:51:57;;;;;;;99.75;36.30;;;11.40;99.90;;;;;;5155238;27;20415;-77
2021/12/15 04:54:23;;;;;;;104.80;36.92;;;11.40;99.90;;;;;;5137679;27;20092;-77
2021/12/15 04:56:48;;;;;;;104.68;36.53;;;11.40;99.90;;;;;;5137825;27;20047;-77
2021/12/15 04:59:16;;;;;;;96.63;37.67;;;11.30;99.90;;;;;;5155052;27;20440;-78
2021/12/15 05:01:42;;;;;;;112.72;38.47;;;11.30;99.90;;;;;;5155074;27;20069;-77
2021/12/15 05:04:08;;;;;;;104.40;37.05;;;11.30;99.90;;;;;;5153573;27;20045;-77
2021/12/15 05:06:34;;;;;;;96.32;35.90;;;11.30;99.90;;;;;;5154809;27;20141;-77
2021/12/15 05:09:00;;;;;;;115.60;37.67;;;11.30;99.90;;;;;;5137687;27;20054;-77
2021/12/15 05:11:26;;;;;;;110.75;38.92;;;11.40;99.90;;;;;;5154681;27;20046;-77
2021/12/15 05:13:52;;;;;;;108.03;37.88;;;11.40;99.90;;;;;;5155118;27;20133;-78
2021/12/15 05:16:18;;;;;;;111.15;38.38;;;11.40;99.90;;;;;;5154507;27;20082;-77
2021/12/15 05:18:44;;;;;;;113.57;37.78;;;11.40;99.90;;;;;;5137241;27;20039;-78
2021/12/15 05:21:11;;;;;;;94.65;36.55;;;11.40;99.90;;;;;;5154824;27;20519;-77
2021/12/15 05:23:39;;;;;;;101.30;38.22;;;11.30;99.90;;;;;;5154433;27;20042;-77
2021/12/15 05:26:04;;;;;;;110.97;41.10;;;11.20;99.90;;;;;;5137376;27;20125;-77
2021/12/15 05:28:30;;;;;;;102.38;35.83;;;11.30;99.90;;;;;;5137305;27;20142;-77
2021/12/15 05:30:57;;;;;;;103.60;38.13;;;11.30;99.90;;;;;;5137170;27;20069;-77
2021/12/15 05:33:24;;;;;;;99.20;37.97;;;11.30;99.90;;;;;;5136894;27;20043;-77
2021/12/15 05:35:50;;;;;;;108.38;38.70;;;11.30;99.90;;;;;;5136998;27;20134;-77
2021/12/15 05:38:17;;;;;;;111.03;38.78;;;11.30;99.90;;;;;;5137158;27;20085;-77
2021/12/15 05:40:44;;;;;;;112.40;38.80;;;11.20;99.90;;;;;;5154160;27;20133;-77
2021/12/15 05:43:10;;;;;;;109.45;39.30;;;11.30;99.90;;;;;;5154086;27;20489;-77
2021/12/15 05:45:39;;;;;;;105.75;38.65;;;11.30;99.90;;;;;;5136047;27;20054;-77
2021/12/15 05:48:07;;;;;;;119.15;39.03;;;11.30;99.90;;;;;;5154246;27;20495;-77
2021/12/15 05:50:34;;;;;;;100.30;37.75;;;11.30;99.90;;;;;;5154019;27;20047;-77
2021/12/15 05:53:01;;;;;;;109.40;38.03;;;11.30;99.90;;;;;;5154212;27;20053;-77
2021/12/15 05:55:28;;;;;;;110.95;39.40;;;11.20;99.90;;;;;;5136766;27;20556;-77
2021/12/15 05:57:53;;;;;;;109.18;38.33;;;11.30;99.90;;;;;;5154060;27;20043;-77
2021/12/15 06:00:25;;;;;;;102.05;37.40;;;11.30;99.90;;;;;;5154226;27;20065;-77
2021/12/15 06:02:51;;;;;;;106.75;37.70;;;11.30;99.90;;;;;;5153755;27;20123;-77
2021/12/15 06:05:17;;;;;;;101.50;37.40;;;11.30;99.90;;;;;;5154177;27;20047;-77
2021/12/15 06:07:43;;;;;;;109.28;40.67;;;11.30;99.90;;;;;;5153954;27;20058;-77
2021/12/15 06:10:15;;;;;;;116.38;41.08;;;11.40;99.90;;;;;;5154408;27;20043;-77
2021/12/15 06:12:42;;;;;;;121.70;39.10;;;11.40;99.90;;;;;;5153826;27;20043;-77
2021/12/15 06:15:09;;;;;;;113.95;40.20;;;11.30;99.90;;;;;;5154614;27;20121;-77
2021/12/15 06:17:35;;;;;;;98.13;37.05;;;11.40;99.90;;;;;;5141038;27;20078;-78
2021/12/15 06:20:02;;;;;;;101.32;37.88;;;11.30;99.90;;;;;;5140921;27;20084;-78
2021/12/15 06:22:30;;;;;;;108.95;37.03;;;11.30;99.90;;;;;;5140756;27;20146;-77
2021/12/15 06:24:57;;;;;;;115.88;38.92;;;11.30;99.90;;;;;;5157843;27;20046;-78
2021/12/15 06:27:24;;;;;;;101.93;37.60;;;11.30;99.90;;;;;;5141009;27;20536;-77
2021/12/15 06:29:52;;;;;;;110.07;40.28;;;11.30;99.90;;;;;;5157684;27;20401;-77
2021/12/15 06:32:19;;;;;;;99.10;36.65;;;11.30;99.90;;;;;;5157939;27;20504;-77
2021/12/15 06:34:45;;;;;;;94.45;35.70;;;11.40;99.90;;;;;;5106694;27;20158;-78
2021/12/15 06:37:12;;;;;;;101.78;37.10;;;11.40;99.90;;;;;;5140357;27;20084;-77
2021/12/15 06:39:38;;;;;;;106.07;37.30;;;11.40;99.90;;;;;;5157810;27;20038;-78
2021/12/15 06:42:05;;;;;;;111.35;37.65;;;11.40;99.90;;;;;;5140272;27;20050;-77
2021/12/15 06:44:31;;;;;;;94.65;36.03;;;11.50;99.90;;;;;;5157114;27;20192;-78
2021/12/15 07:00:33;;;;;;;101.07;36.53;;;11.40;99.90;;;;;;5157221;27;20053;-78
2021/12/15 07:03:00;;;;;;;91.07;36.10;;;11.40;99.90;;;;;;5157061;27;20035;-77
2021/12/15 07:05:28;;;;;;;96.68;36.53;;;11.40;99.90;;;;;;5156990;27;20047;-77
2021/12/15 07:07:56;;;;;;;92.75;37.42;;;11.30;99.90;;;;;;5140223;27;20046;-78
2021/12/15 07:10:26;;;;;;;84.20;34.67;;;11.30;99.90;;;;;;5140093;27;20062;-77
2021/12/15 07:12:52;;;;;;;99.00;36.25;;;11.30;99.90;;;;;;5157033;27;20055;-78
2021/12/15 07:15:19;;;;;;;90.97;35.60;;;11.30;99.90;;;;;;5139660;27;20190;-77
2021/12/15 07:17:48;;;;;;;81.55;32.63;;;11.30;99.90;;;;;;5156967;27;20050;-77
2021/12/15 07:22:59;;;;;;;88.53;35.33;;;11.30;99.90;;;;;;5141197;27;20051;-77
2021/12/15 07:25:26;;;;;;;82.45;34.67;;;11.30;99.90;;;;;;5156961;27;20039;-77
2021/12/15 07:27:53;;;;;;;90.32;35.78;;;11.30;99.90;;;;;;5156144;27;20495;-77
2021/12/15 07:30:19;;;;;;;88.57;35.72;;;11.30;99.90;;;;;;5156711;27;20150;-77
2021/12/15 07:32:45;;;;;;;92.45;35.28;;;11.30;99.90;;;;;;5139529;27;20082;-77
2021/12/15 07:35:13;;;;;;;82.57;32.72;;;11.30;99.90;;;;;;5156915;27;20069;-77
2021/12/15 07:37:39;;;;;;;96.97;35.22;;;11.30;99.90;;;;;;5139559;27;20047;-77
2021/12/15 07:40:12;;;;;;;85.25;33.58;;;11.30;99.90;;;;;;5156475;27;20049;-77
2021/12/15 07:42:53;;;;;;;97.05;35.45;;;11.30;99.90;;;;;;5156142;27;20043;-77
2021/12/15 07:45:22;;;;;;;85.15;34.95;;;11.40;99.90;;;;;;5155740;27;20051;-77
2021/12/15 07:47:49;;;;;;;88.32;35.45;;;11.40;99.90;;;;;;5156554;27;20106;-77
2021/12/15 07:50:15;;;;;;;90.35;35.25;;;11.40;99.90;;;;;;5156947;27;20117;-77
2021/12/15 07:52:41;;;;;;;82.20;35.17;;;11.30;99.90;;;;;;5138955;27;20125;-77
2021/12/15 07:55:07;;;;;;;86.78;34.42;;;11.30;99.90;;;;;;5139154;27;20069;-77
2021/12/15 07:57:33;;;;;;;90.80;34.88;;;11.30;99.90;;;;;;5138750;27;20617;-78
2021/12/15 07:59:59;;;;;;;90.85;32.53;;;11.30;99.90;;;;;;5156203;27;20047;-77
2021/12/15 08:02:26;;;;;;;85.30;34.22;;;11.20;99.90;;;;;;5138977;27;20070;-77
2021/12/15 08:04:52;;;;;;;84.75;32.10;;;11.20;99.90;;;;;;5156173;27;20050;-77
2021/12/15 08:07:17;;;;;;;75.32;31.80;;;11.20;99.90;;;;;;5156320;27;20045;-77
2021/12/15 08:09:45;;;;;;;77.20;32.10;;;11.30;99.90;;;;;;5138632;27;20042;-77
2021/12/15 08:12:11;;;;;;;67.47;29.92;;;11.30;99.90;;;;;;5156113;27;20556;-77
2021/12/15 08:14:38;;;;;;;65.70;27.73;;;11.30;99.90;;;;;;5138255;27;20389;-78
2021/12/15 08:17:04;;;;;;;61.40;26.30;;;11.40;99.90;;;;;;5156101;27;20092;-77
2021/12/15 08:19:30;;;;;;;66.07;27.70;;;11.30;99.90;;;;;;5155876;27;20047;-77
2021/12/15 08:21:56;;;;;;;66.25;26.88;;;11.30;99.90;;;;;;5138463;27;20120;-77
2021/12/15 08:24:22;;;;;;;66.93;27.58;;;11.20;99.90;;;;;;5155410;27;20043;-77
2021/12/15 08:26:47;;;;;;;64.97;26.65;;;11.20;99.90;;;;;;5138235;27;20393;-77
2021/12/15 08:29:13;;;;;;;59.47;26.52;;;11.20;99.90;;;;;;5138435;27;20050;-77
2021/12/15 08:31:39;;;;;;;66.43;26.60;;;11.20;99.90;;;;;;5155582;27;20447;-77
2021/12/15 08:34:08;;;;;;;65.53;25.15;;;11.30;99.90;;;;;;5155794;27;20050;-77
2021/12/15 08:36:34;;;;;;;70.35;27.52;;;11.40;99.90;;;;;;5155425;27;20125;-77
2021/12/15 08:39:00;;;;;;;64.93;27.35;;;11.40;99.90;;;;;;5155342;27;20485;-78
2021/12/15 08:41:28;;;;;;;66.45;27.42;;;11.40;99.90;;;;;;5137807;27;20125;-78
2021/12/15 08:43:54;;;;;;;64.40;26.65;;;11.40;99.90;;;;;;5137556;27;20067;-78
2021/12/15 08:46:28;;;;;;;72.25;26.48;;;11.30;99.90;;;;;;5155011;27;20494;-78
2021/12/15 08:48:54;;;;;;;67.60;26.70;;;11.30;99.90;;;;;;5155070;27;20078;-78
2021/12/15 08:51:25;;;;;;;64.63;25.60;;;11.40;99.90;;;;;;5155082;27;20049;-78
2021/12/15 08:53:52;;;;;;;59.17;24.38;;;11.40;99.90;;;;;;5138595;27;20110;-78
2021/12/15 08:56:18;;;;;;;56.65;23.65;;;11.40;99.90;;;;;;5155791;27;20047;-78
2021/12/15 08:58:44;;;;;;;61.80;24.45;;;11.40;99.90;;;;;;5155073;27;20046;-82
2021/12/15 09:01:09;;;;;;;57.88;23.58;;;11.30;99.90;;;;;;5137943;27;20397;-78
2021/12/15 09:03:36;;;;;;;54.42;23.20;;;11.30;99.90;;;;;;5154958;27;20082;-71
2021/12/15 09:06:03;;;;;;;55.42;23.23;;;11.40;99.90;;;;;;5154851;27;20057;-75
2021/12/15 09:08:29;;;;;;;58.33;23.67;;;11.40;99.90;;;;;;5137747;27;20034;-73
2021/12/15 09:10:58;;;;;;;49.55;21.90;;;11.50;99.90;;;;;;5155751;27;20087;-74
2021/12/15 09:13:29;;;;;;;47.20;21.60;;;11.50;99.90;;;;;;5156000;27;20129;-73
2021/12/15 09:15:55;;;;;;;57.40;24.15;;;11.50;99.90;;;;;;5154518;27;20054;-73
2021/12/15 09:18:21;;;;;;;55.97;23.85;;;11.40;99.90;;;;;;5154796;27;20050;-71
2021/12/15 09:20:47;;;;;;;58.50;24.80;;;11.50;99.90;;;;;;5160754;27;20046;-71
2021/12/15 09:23:15;;;;;;;51.58;22.83;;;11.50;99.90;;;;;;5137557;27;20047;-71
2021/12/15 09:25:42;;;;;;;59.05;24.17;;;11.40;99.90;;;;;;5155129;27;20047;-73
2021/12/15 09:28:08;;;;;;;52.78;22.42;;;11.40;99.90;;;;;;5137266;27;20047;-73
2021/12/15 09:30:36;;;;;;;59.08;23.55;;;11.40;99.90;;;;;;5155510;27;20049;-72
2021/12/15 09:33:02;;;;;;;48.55;21.90;;;11.40;99.90;;;;;;5154276;27;20046;-72
2021/12/15 09:35:31;;;;;;;55.03;24.48;;;11.30;99.90;;;;;;5137490;27;20449;-73
2021/12/15 09:37:57;;;;;;;51.90;21.58;;;11.40;99.90;;;;;;5155445;27;20078;-72
2021/12/15 09:40:23;;;;;;;47.42;19.88;;;11.30;99.90;;;;;;5155520;27;20397;-72
2021/12/15 09:42:49;;;;;;;46.60;20.35;;;11.40;99.90;;;;;;5154377;27;20469;-72
2021/12/15 09:48:07;;;;;;;37.25;18.33;;;11.40;99.90;;;;;;5154092;27;20057;-73
2021/12/15 10:05:01;;;;;;;41.20;18.15;;;11.40;99.90;;;;;;5153912;27;19973;-77
2021/12/15 10:18:31;;;;;;;46.33;18.08;;;11.60;99.90;;;;;;5154444;27;20065;-72
2021/12/15 10:20:57;;;;;;;45.53;19.95;;;11.70;99.90;;;;;;5154201;27;20091;-71
2021/12/15 10:23:30;;;;;;;49.10;21.10;;;11.70;99.90;;;;;;5153473;27;20481;-70
2021/12/15 10:25:57;;;;;;;48.45;20.20;;;11.80;99.90;;;;;;5154344;27;20552;-70
2021/12/15 10:28:26;;;;;;;36.85;18.13;;;11.80;99.90;;;;;;5136976;27;20043;-70
2021/12/15 10:30:55;;;;;;;36.22;17.73;;;11.70;99.90;;;;;;5155066;27;20047;-70
2021/12/15 10:33:28;;;;;;;35.47;16.85;;;11.60;99.90;;;;;;5153783;27;20043;-70
2021/12/15 10:36:13;;;;;;;43.60;16.10;;;11.60;99.90;;;;;;5154651;27;20047;-70
2021/12/15 10:38:48;;;;;;;38.83;16.10;;;11.60;99.90;;;;;;5153812;27;20058;-70
2021/12/15 10:41:26;;;;;;;41.60;15.55;;;11.60;99.90;;;;;;5153820;27;20500;-70
2021/12/15 10:44:09;;;;;;;37.45;17.00;;;11.50;99.90;;;;;;5153301;27;20088;-71
2021/12/15 10:46:41;;;;;;;40.70;16.67;;;11.50;99.90;;;;;;5153377;27;20058;-70
2021/12/15 10:49:19;;;;;;;33.75;15.75;;;11.50;99.90;;;;;;5154948;27;20469;-81
2021/12/15 10:51:58;;;;;;;40.40;16.85;;;11.60;99.90;;;;;;5137032;27;20055;-73
2021/12/15 10:54:40;;;;;;;37.53;15.90;;;11.50;99.90;;;;;;5153479;27;20082;-81
2021/12/15 10:57:13;;;;;;;28.27;13.13;;;11.40;99.90;;;;;;5153648;27;20046;-82
2021/12/15 10:59:41;;;;;;;39.95;14.63;;;11.10;99.90;;;;;;5154086;27;20099;-83
2021/12/15 11:02:16;;;;;;;37.75;15.30;;;11.20;99.90;;;;;;5137312;27;20050;-72
2021/12/15 11:05:01;;;;;;;37.05;14.90;;;11.10;99.90;;;;;;5157414;27;20106;-75
2021/12/15 11:07:38;;;;;;;35.60;15.75;;;11.40;99.90;;;;;;5157473;27;20055;-76
2021/12/15 11:10:35;;;;;;;39.17;16.33;;;11.60;99.90;;;;;;5158240;27;20039;-75
2021/12/15 11:13:06;;;;;;;36.72;15.60;;;11.70;99.90;;;;;;5140538;27;20107;-76
2021/12/15 11:15:40;;;;;;;30.55;14.50;;;11.70;99.90;;;;;;5156511;27;20055;-77
2021/12/15 11:18:18;;;;;;;37.83;15.75;;;11.80;99.90;;;;;;5157229;27;20042;-76
2021/12/15 11:20:47;;;;;;;30.67;14.40;;;11.70;99.90;;;;;;5139576;27;20382;-77
2021/12/15 11:23:18;;;;;;;34.38;14.05;;;11.80;99.90;;;;;;5159800;27;20043;-80
2021/12/15 11:26:02;;;;;;;29.80;14.43;;;11.80;99.90;;;;;;5139536;27;20417;-77
2021/12/15 11:28:40;;;;;;;25.35;11.45;;;11.70;99.90;;;;;;5157515;27;20046;-76
2021/12/15 11:31:18;;;;;;;28.15;12.80;;;11.70;99.90;;;;;;5156773;27;20038;-76
2021/12/15 11:33:52;;;;;;;24.95;11.85;;;11.80;99.90;;;;;;5139523;27;20050;-76
2021/12/15 11:36:27;;;;;;;28.08;12.52;;;11.80;99.90;;;;;;5139548;27;20497;-76
2021/12/15 11:39:10;;;;;;;30.25;12.90;;;11.90;99.90;;;;;;5140141;27;20481;-77
2021/12/15 11:41:46;;;;;;;33.45;12.23;;;11.90;99.90;;;;;;5157969;27;20514;-76
2021/12/15 11:44:21;;;;;;;22.00;11.40;;;11.80;99.90;;;;;;5138816;27;20047;-76
2021/12/15 11:47:03;;;;;;;21.58;11.00;;;11.80;99.90;;;;;;5138475;27;20057;-78
2021/12/15 11:49:32;;;;;;;29.15;12.95;;;11.60;99.90;;;;;;5157208;27;20043;-77
2021/12/15 11:52:03;;;;;;;22.60;10.70;;;11.60;99.90;;;;;;5139235;27;20046;-77
2021/12/15 11:54:38;;;;;;;27.88;10.48;;;11.80;99.90;;;;;;5139090;27;20035;-77
2021/12/15 11:57:18;;;;;;;26.30;10.50;;;11.70;99.90;;;;;;5139026;27;20047;-77
2021/12/15 11:59:50;;;;;;;31.60;11.32;;;11.80;99.90;;;;;;5156325;27;20133;-77
2021/12/15 12:02:27;;;;;;;25.38;10.85;;;11.80;99.90;;;;;;5138897;27;20051;-77
2021/12/15 12:05:02;;;;;;;23.45;8.95;;;11.70;99.90;;;;;;5156491;27;20377;-78
2021/12/15 12:07:33;;;;;;;22.33;9.23;;;11.60;99.90;;;;;;5138845;27;20057;-80
2021/12/15 12:10:22;;;;;;;23.95;9.13;;;11.30;99.90;;;;;;5156534;27;20047;-77
2021/12/15 12:12:57;;;;;;;36.97;10.13;;;11.60;99.90;;;;;;5156347;27;20042;-76
2021/12/15 12:15:27;;;;;;;19.48;8.65;;;11.60;99.90;;;;;;5138222;27;20052;-81
2021/12/15 12:17:56;;;;;;;17.52;8.13;;;11.40;99.90;;;;;;5161909;27;20064;-80
2021/12/15 12:20:28;;;;;;;18.42;8.38;;;11.40;99.90;;;;;;5138461;27;20090;-77
2021/12/15 12:22:56;;;;;;;18.08;6.63;;;11.30;99.90;;;;;;5155861;27;20129;-85
2021/12/15 12:25:33;;;;;;;17.05;5.75;;;11.20;99.90;;;;;;5138464;27;20047;-81
2021/12/15 12:27:59;;;;;;;8.80;4.07;;;11.10;99.90;;;;;;5155556;27;20042;-81
2021/12/15 12:30:29;;;;;;;11.32;4.70;;;11.10;99.90;;;;;;5155664;27;20049;-75
2021/12/15 12:32:56;;;;;;;11.35;4.10;;;11.10;99.90;;;;;;5155858;27;20047;-78
2021/12/15 12:35:28;;;;;;;12.77;4.75;;;11.10;99.90;;;;;;5121261;27;20463;-76
2021/12/15 12:37:58;;;;;;;14.88;4.57;;;11.20;99.90;;;;;;5155459;27;20054;-71
2021/12/15 12:40:31;;;;;;;10.35;4.38;;;11.40;99.90;;;;;;5138453;27;20050;-70
2021/12/15 12:42:57;;;;;;;13.82;4.10;;;11.50;99.90;;;;;;5155153;27;20151;-71
2021/12/15 12:45:39;;;;;;;14.07;4.43;;;11.50;99.90;;;;;;5155486;27;20532;-78
2021/12/15 12:59:43;;;;;;;11.52;4.25;;;11.60;99.90;;;;;;5155923;27;20053;-70
2021/12/15 13:02:38;;;;;;;14.27;3.90;;;11.90;99.90;;;;;;5156078;27;20050;-71
2021/12/15 13:05:07;;;;;;;13.85;4.18;;;11.80;99.90;;;;;;5155184;27;20481;-71
2021/12/15 13:07:48;;;;;;;14.35;3.95;;;11.70;99.90;;;;;;5155722;27;20083;-72
2021/12/15 13:10:18;;;;;;;7.15;3.15;;;11.60;99.90;;;;;;5137726;27;20046;-70
2021/12/15 13:12:47;;;;;;;16.30;3.50;;;11.60;99.90;;;;;;5154858;27;20481;-70
2021/12/15 13:15:22;;;;;;;8.02;3.15;;;11.50;99.90;;;;;;5155134;27;20482;-70
2021/12/15 13:18:01;;;;;;;7.97;3.03;;;11.50;99.90;;;;;;5154749;27;20392;-70
2021/12/15 13:20:32;;;;;;;8.15;2.33;;;11.40;99.90;;;;;;5155541;27;20046;-77
2021/12/15 13:28:49;;;;;;;5.47;2.22;;;11.50;99.80;;;;;;5154668;27;20405;-77
2021/12/15 13:31:18;;;;;;;7.80;2.17;;;11.60;99.70;;;;;;5137391;27;20088;-77
2021/12/15 13:33:57;;;;;;;8.57;2.08;;;11.50;99.60;;;;;;5154585;27;20065;-77
2021/12/15 13:36:26;;;;;;;9.63;2.10;;;11.50;99.70;;;;;;5155030;27;20047;-77
2021/12/15 13:38:54;;;;;;;8.75;2.58;;;11.50;99.60;;;;;;5154342;27;20050;-77
2021/12/15 13:41:28;;;;;;;9.80;2.28;;;11.40;99.70;;;;;;5154404;27;20050;-78
2021/12/15 13:43:56;;;;;;;6.90;1.88;;;11.40;99.70;;;;;;5154187;27;20153;-75
2021/12/15 13:46:34;;;;;;;3.40;1.67;;;11.60;99.50;;;;;;5136049;27;20050;-71
2021/12/15 13:49:08;;;;;;;6.20;2.05;;;11.40;99.20;;;;;;5154752;27;20054;-73
2021/12/15 13:51:58;;;;;;;11.30;2.42;;;11.30;99.40;;;;;;5154186;27;20454;-71
2021/12/15 13:54:33;;;;;;;10.25;2.13;;;11.40;99.60;;;;;;5154295;27;20082;-71
2021/12/15 13:57:22;;;;;;;6.32;2.20;;;11.20;99.40;;;;;;5154103;27;20080;-71
2021/12/15 14:00:10;;;;;;;11.20;2.00;;;11.00;99.50;;;;;;5144572;27;20066;-71
2021/12/15 14:02:42;;;;;;;6.68;2.00;;;11.00;99.70;;;;;;5154295;27;20051;-72
2021/12/15 14:05:22;;;;;;;6.72;2.08;;;10.90;99.80;;;;;;5154331;27;20047;-71